Time;durP1;ratioP1;P1;durP2;ratioP2;P2;SDS_P1;SDS_P2;PMS_P1;PMS_P2;Temp;Humidity;BMP_temperature;BMP_pressure;BME280_temperature;BME280_humidity;BME280_pressure;Samples;Min_cycle;Max_cycle;Signal;HPM_P1;HPM_P2
2023/04/27 00:01:53;;;;;;;12.43;6.70;;;;;;;3.98;100.00;-18134.94;5014351;28;20042;-82
2023/04/27 00:04:19;;;;;;;14.40;7.05;;;;;;;3.97;100.00;-18134.81;5010626;28;20107;-82
2023/04/27 00:06:44;;;;;;;8.85;6.10;;;;;;;3.95;100.00;-18134.25;5007396;28;20053;-82
2023/04/27 00:09:10;;;;;;;11.60;6.13;;;;;;;3.97;100.00;-18134.66;5023399;28;20054;-82
2023/04/27 00:11:36;;;;;;;12.02;6.82;;;;;;;3.91;100.00;-18133.00;5009514;28;20041;-82
2023/04/27 00:14:01;;;;;;;10.40;6.15;;;;;;;3.93;100.00;-18133.56;5011874;28;20124;-82
2023/04/27 00:16:27;;;;;;;10.20;6.40;;;;;;;3.86;100.00;-18131.63;5011129;28;20418;-82
2023/04/27 00:18:52;;;;;;;7.82;5.97;;;;;;;3.84;100.00;-18131.34;5013314;28;20707;-82
2023/04/27 00:21:18;;;;;;;11.45;6.40;;;;;;;3.81;100.00;-18130.53;5012914;28;20424;-82
2023/04/27 00:23:43;;;;;;;11.38;6.50;;;;;;;3.84;100.00;-18131.34;5012427;28;20042;-82
2023/04/27 00:26:09;;;;;;;12.65;6.30;;;;;;;3.84;100.00;-18131.34;5011347;28;20128;-82
2023/04/27 00:28:34;;;;;;;10.07;6.05;;;;;;;3.79;100.00;-18129.97;5012149;28;20053;-82
2023/04/27 00:31:02;;;;;;;11.40;6.38;;;;;;;3.65;100.00;-18126.09;5014324;28;20042;-82
2023/04/27 00:33:28;;;;;;;9.98;6.53;;;;;;;3.63;100.00;-18125.56;5013364;28;20038;-82
2023/04/27 00:35:53;;;;;;;14.27;6.60;;;;;;;3.50;100.00;-18122.09;5012412;28;20064;-82
2023/04/27 00:38:18;;;;;;;8.73;6.32;;;;;;;3.46;100.00;-18120.84;5013481;28;20053;-82
2023/04/27 00:40:44;;;;;;;10.10;6.55;;;;;;;3.44;100.00;-18120.44;5011308;28;20042;-81
2023/04/27 00:43:09;;;;;;;11.10;7.32;;;;;;;3.35;100.00;-18118.09;5007602;28;20037;-82
2023/04/27 00:45:41;;;;;;;9.73;6.47;;;;;;;3.32;100.00;-18117.25;5027139;28;20041;-82
2023/04/27 00:48:06;;;;;;;11.82;7.13;;;;;;;3.34;100.00;-18117.81;5012642;28;20042;-82
2023/04/27 00:50:32;;;;;;;9.50;6.75;;;;;;;3.26;100.00;-18115.47;5010480;28;20064;-82
2023/04/27 00:52:58;;;;;;;12.23;6.57;;;;;;;3.25;100.00;-18115.19;5009038;28;20042;-82
2023/04/27 00:55:23;;;;;;;15.70;6.95;;;;;;;3.25;100.00;-18115.31;5008873;28;20049;-82
2023/04/27 00:57:48;;;;;;;10.95;7.32;;;;;;;3.14;100.00;-18112.44;5010774;28;20046;-82
2023/04/27 01:00:14;;;;;;;11.20;6.72;;;;;;;3.03;100.00;-18109.38;5009304;28;20073;-82
2023/04/27 01:02:40;;;;;;;10.93;7.45;;;;;;;3.05;100.00;-18109.94;5011116;28;20102;-83
2023/04/27 01:05:07;;;;;;;9.95;7.13;;;;;;;2.88;100.00;-18105.38;5007692;28;20076;-82
2023/04/27 01:07:36;;;;;;;10.10;6.97;;;;;;;2.69;100.00;-18100.25;5000949;28;20045;-82
2023/04/27 01:10:02;;;;;;;11.75;7.25;;;;;;;2.59;100.00;-18097.50;5009981;28;20042;-82
2023/04/27 01:12:27;;;;;;;13.02;7.63;;;;;;;2.59;100.00;-18097.34;5004871;28;20145;-82
2023/04/27 01:14:52;;;;;;;12.07;7.78;;;;;;;2.60;100.00;-18097.63;5008306;28;20413;-82
2023/04/27 01:17:18;;;;;;;13.02;7.43;;;;;;;2.62;100.00;-18098.19;5011038;28;20513;-82
2023/04/27 01:19:43;;;;;;;13.70;7.82;;;;;;;2.49;100.00;-18094.88;5006438;28;20044;-82
2023/04/27 01:22:09;;;;;;;11.75;7.40;;;;;;;2.49;100.00;-18094.72;5008672;28;20673;-82
2023/04/27 01:24:35;;;;;;;13.20;7.25;;;;;;;2.40;100.00;-18092.38;5015758;28;20057;-82
2023/04/27 01:27:01;;;;;;;12.43;7.50;;;;;;;2.41;100.00;-18092.50;5003806;28;20468;-82
2023/04/27 01:29:27;;;;;;;12.27;7.72;;;;;;;2.37;100.00;-18091.53;5010446;28;20049;-81
2023/04/27 01:31:52;;;;;;;11.23;7.45;;;;;;;2.26;100.00;-18088.50;5013570;28;20464;-82
2023/04/27 01:34:17;;;;;;;12.68;7.28;;;;;;;2.30;100.00;-18089.59;5006829;28;20492;-82
2023/04/27 01:36:43;;;;;;;14.30;7.07;;;;;;;2.22;100.00;-18087.53;5009509;28;20050;-82
2023/04/27 01:39:08;;;;;;;13.77;7.53;;;;;;;2.14;100.00;-18085.19;5012001;28;20045;-82
2023/04/27 01:41:37;;;;;;;15.48;8.90;;;;;;;2.05;100.00;-18082.84;5014497;28;20183;-82
2023/04/27 01:44:02;;;;;;;13.80;7.95;;;;;;;2.13;100.00;-18084.91;5013398;28;20571;-82
2023/04/27 01:46:27;;;;;;;11.68;7.50;;;;;;;1.96;100.00;-18080.47;5010465;28;20050;-82
2023/04/27 01:48:53;;;;;;;13.43;7.75;;;;;;;1.92;100.00;-18079.38;5015387;28;20157;-82
2023/04/27 01:51:19;;;;;;;11.63;7.88;;;;;;;1.84;100.00;-18077.00;5012486;28;20049;-82
2023/04/27 01:53:44;;;;;;;11.25;7.97;;;;;;;1.75;100.00;-18074.81;5009366;28;20449;-82
2023/04/27 01:56:10;;;;;;;16.88;8.52;;;;;;;1.74;100.00;-18074.53;5012886;28;20124;-82
2023/04/27 01:58:35;;;;;;;16.52;8.35;;;;;;;1.75;100.00;-18074.81;5010617;28;20049;-82
2023/04/27 02:01:01;;;;;;;16.33;8.18;;;;;;;1.72;100.00;-18073.84;5013058;28;20076;-82
2023/04/27 02:03:26;;;;;;;15.05;8.75;;;;;;;1.75;100.00;-18074.81;5012041;28;20048;-82
2023/04/27 02:05:51;;;;;;;11.07;7.93;;;;;;;1.66;100.00;-18072.31;5012071;28;20133;-81
2023/04/27 02:08:17;;;;;;;15.30;9.20;;;;;;;1.64;100.00;-18071.75;5010938;28;20061;-82
2023/04/27 02:10:42;;;;;;;17.92;8.70;;;;;;;1.58;100.00;-18070.25;5011468;28;20046;-81
2023/04/27 02:13:08;;;;;;;15.98;8.35;;;;;;;1.57;100.00;-18069.97;5005560;28;20450;-81
2023/04/27 02:15:34;;;;;;;14.93;9.10;;;;;;;1.46;100.00;-18066.91;5011587;28;20137;-81
2023/04/27 02:17:59;;;;;;;14.15;8.13;;;;;;;1.46;100.00;-18066.78;5012554;28;20141;-81
2023/04/27 02:20:25;;;;;;;16.63;8.20;;;;;;;1.51;100.00;-18068.16;5010638;28;20052;-81
2023/04/27 02:22:52;;;;;;;15.80;8.27;;;;;;;1.38;100.00;-18064.56;5010231;28;20153;-81
2023/04/27 02:25:18;;;;;;;13.48;8.88;;;;;;;1.29;100.00;-18062.34;5012223;28;20041;-81
2023/04/27 02:27:43;;;;;;;16.17;8.90;;;;;;;1.33;100.00;-18063.31;5012498;28;20076;-80
2023/04/27 02:30:13;;;;;;;15.95;8.23;;;;;;;1.34;100.00;-18063.72;5011750;28;20424;-81
2023/04/27 02:32:38;;;;;;;14.18;8.95;;;;;;;1.30;100.00;-18062.50;5006028;28;20076;-81
2023/04/27 02:35:04;;;;;;;17.33;8.38;;;;;;;1.28;100.00;-18062.06;5018214;28;20057;-81
2023/04/27 02:37:30;;;;;;;16.70;8.70;;;;;;;1.24;100.00;-18060.81;5027255;28;20467;-81
2023/04/27 02:39:55;;;;;;;12.38;8.13;;;;;;;1.23;100.00;-18060.69;5011347;28;20038;-81
2023/04/27 02:42:21;;;;;;;13.88;8.43;;;;;;;1.17;100.00;-18058.88;5011700;28;20046;-80
2023/04/27 02:44:49;;;;;;;13.60;8.70;;;;;;;1.18;100.00;-18059.16;5011630;28;20041;-80
2023/04/27 02:47:16;;;;;;;15.20;8.68;;;;;;;1.17;100.00;-18059.03;5006619;28;20444;-81
2023/04/27 02:49:42;;;;;;;15.93;9.25;;;;;;;1.21;100.00;-18060.00;5007339;28;20066;-80
2023/04/27 02:52:07;;;;;;;13.70;8.50;;;;;;;1.13;100.00;-18058.06;5009141;28;20073;-81
2023/04/27 02:54:33;;;;;;;12.98;8.65;;;;;;;1.09;100.00;-18056.81;5010832;28;20068;-81
2023/04/27 02:56:58;;;;;;;17.52;9.50;;;;;;;1.09;100.00;-18056.94;5007374;28;20045;-80
2023/04/27 02:59:24;;;;;;;15.20;9.13;;;;;;;1.10;100.00;-18057.22;5009083;28;20107;-81
2023/04/27 03:01:49;;;;;;;14.35;8.27;;;;;;;1.04;100.00;-18055.44;5006430;28;20042;-81
2023/04/27 03:04:15;;;;;;;16.27;9.35;;;;;;;0.94;100.00;-18052.78;5009775;28;20049;-81
2023/04/27 03:06:40;;;;;;;14.55;8.90;;;;;;;1.03;100.00;-18055.28;5008467;28;20073;-80
2023/04/27 03:09:06;;;;;;;16.20;9.65;;;;;;;0.97;100.00;-18053.63;5009504;28;20053;-80
2023/04/27 03:11:32;;;;;;;14.70;9.27;;;;;;;0.97;100.00;-18053.63;5007397;28;20139;-80
2023/04/27 03:13:57;;;;;;;17.63;9.98;;;;;;;0.94;100.00;-18052.78;5006861;28;20229;-80
2023/04/27 03:16:22;;;;;;;14.90;8.52;;;;;;;0.94;100.00;-18052.78;5009748;28;20465;-80
2023/04/27 03:18:48;;;;;;;16.92;9.98;;;;;;;0.92;100.00;-18052.25;5004701;28;20096;-81
2023/04/27 03:21:15;;;;;;;17.42;9.57;;;;;;;0.93;100.00;-18052.53;5005765;28;20054;-81
2023/04/27 03:23:41;;;;;;;14.57;10.32;;;;;;;0.89;100.00;-18051.41;5008188;28;20527;-81
2023/04/27 03:26:11;;;;;;;17.88;10.15;;;;;;;0.90;100.00;-18051.69;5012938;28;20037;-81
2023/04/27 03:28:37;;;;;;;15.57;10.10;;;;;;;0.87;100.00;-18050.84;5007506;28;20050;-81
2023/04/27 03:31:07;;;;;;;18.15;9.75;;;;;;;0.83;100.00;-18049.75;5009075;28;20058;-80
2023/04/27 03:33:32;;;;;;;18.77;10.90;;;;;;;0.88;100.00;-18051.28;5004675;28;20548;-81
2023/04/27 03:35:58;;;;;;;19.95;9.98;;;;;;;0.85;100.00;-18050.44;5010723;28;20054;-81
2023/04/27 03:38:24;;;;;;;17.63;9.13;;;;;;;0.88;100.00;-18051.13;5008609;28;20048;-81
2023/04/27 03:40:50;;;;;;;18.55;9.15;;;;;;;0.84;100.00;-18050.16;5008438;28;20042;-81
2023/04/27 03:43:15;;;;;;;18.88;10.48;;;;;;;0.85;100.00;-18050.44;5010354;28;20033;-81
2023/04/27 03:45:44;;;;;;;15.32;9.80;;;;;;;0.83;100.00;-18049.75;5010493;28;20046;-81
2023/04/27 03:48:09;;;;;;;16.13;10.20;;;;;;;0.83;100.00;-18049.75;5010739;28;20092;-80
2023/04/27 03:50:35;;;;;;;17.63;9.73;;;;;;;0.80;100.00;-18048.91;5009982;28;20441;-81
2023/04/27 03:53:00;;;;;;;17.35;11.05;;;;;;;0.77;100.00;-18048.09;5014157;28;20037;-81
2023/04/27 03:55:25;;;;;;;17.58;10.52;;;;;;;0.80;100.00;-18048.91;5005660;28;20128;-80
2023/04/27 03:57:51;;;;;;;15.45;10.05;;;;;;;0.77;100.00;-18048.22;5007837;28;20038;-80
2023/04/27 04:00:17;;;;;;;19.35;11.82;;;;;;;0.78;100.00;-18048.38;5004020;28;20041;-80
2023/04/27 04:02:43;;;;;;;21.55;12.30;;;;;;;0.77;100.00;-18048.09;5007983;28;20041;-80
2023/04/27 04:05:09;;;;;;;17.85;11.63;;;;;;;0.67;100.00;-18045.47;5007748;28;20044;-80
2023/04/27 04:07:34;;;;;;;18.08;12.05;;;;;;;0.74;100.00;-18047.25;5008390;28;20061;-80
2023/04/27 04:10:00;;;;;;;18.85;12.38;;;;;;;0.82;100.00;-18049.59;5004031;28;20136;-80
2023/04/27 04:12:25;;;;;;;18.50;12.32;;;;;;;0.77;100.00;-18048.09;5012986;28;20092;-80
2023/04/27 04:14:51;;;;;;;21.58;12.98;;;;;;;0.66;100.00;-18045.31;5006657;28;20453;-80
2023/04/27 04:17:16;;;;;;;24.45;13.05;;;;;;;0.60;100.00;-18043.50;5009419;28;20484;-80
2023/04/27 04:19:41;;;;;;;21.75;13.13;;;;;;;0.62;100.00;-18044.22;5004175;28;20048;-80
2023/04/27 04:22:07;;;;;;;20.17;11.98;;;;;;;0.65;100.00;-18044.91;5007860;28;20072;-80
2023/04/27 04:24:32;;;;;;;22.88;12.90;;;;;;;0.57;100.00;-18042.81;5005572;28;20042;-80
2023/04/27 04:26:57;;;;;;;20.83;12.68;;;;;;;0.62;100.00;-18044.06;5027373;23;20129;-82
2023/04/27 04:29:24;;;;;;;16.92;11.20;;;;;;;0.60;100.00;-18043.66;4990399;28;20162;-82
2023/04/27 04:31:49;;;;;;;20.63;11.60;;;;;;;0.60;100.00;-18043.66;4990077;28;20108;-82
2023/04/27 04:34:15;;;;;;;17.45;11.48;;;;;;;0.54;100.00;-18042.00;4989299;28;20039;-81
2023/04/27 04:36:40;;;;;;;19.60;11.77;;;;;;;0.51;100.00;-18041.16;4984623;28;20055;-80
2023/04/27 04:39:06;;;;;;;23.27;11.48;;;;;;;0.55;100.00;-18042.28;4983495;28;20601;-81
2023/04/27 04:41:32;;;;;;;17.60;10.43;;;;;;;0.62;100.00;-18044.06;4983925;28;20042;-81
2023/04/27 04:43:58;;;;;;;17.13;10.88;;;;;;;0.56;100.00;-18042.41;4985629;28;20045;-82
2023/04/27 04:46:24;;;;;;;20.73;11.32;;;;;;;0.59;100.00;-18043.38;4981614;28;20157;-81
2023/04/27 04:48:50;;;;;;;17.83;11.27;;;;;;;0.53;100.00;-18041.59;4983187;28;20046;-82
2023/04/27 04:51:16;;;;;;;19.27;10.70;;;;;;;0.54;100.00;-18042.00;4990465;28;20046;-82
2023/04/27 04:53:41;;;;;;;19.00;11.15;;;;;;;0.50;100.00;-18040.88;4984134;28;20130;-82
2023/04/27 04:56:08;;;;;;;17.05;10.40;;;;;;;0.63;100.00;-18044.50;4986598;28;20054;-81
2023/04/27 04:58:33;;;;;;;20.70;11.32;;;;;;;0.74;100.00;-18047.41;4985596;28;20101;-82
2023/04/27 05:00:59;;;;;;;17.48;11.07;;;;;;;0.90;100.00;-18051.69;4987151;28;20042;-82
2023/04/27 05:03:24;;;;;;;18.73;10.82;;;;;;;0.94;100.00;-18052.78;4985949;28;20038;-82
2023/04/27 05:05:50;;;;;;;20.05;11.35;;;;;;;0.96;100.00;-18053.22;4986114;28;20108;-82
2023/04/27 05:08:16;;;;;;;18.75;10.60;;;;;;;1.01;100.00;-18054.59;4987925;28;20117;-83
2023/04/27 05:10:41;;;;;;;21.42;11.98;;;;;;;1.07;100.00;-18056.25;4983668;28;20129;-82
2023/04/27 05:13:06;;;;;;;21.88;11.57;;;;;;;1.07;100.00;-18056.41;4984986;28;20505;-82
2023/04/27 05:15:32;;;;;;;20.98;11.60;;;;;;;1.02;100.00;-18055.00;4986898;28;20141;-82
2023/04/27 05:17:57;;;;;;;22.85;12.18;;;;;;;1.05;100.00;-18055.84;4986685;28;20049;-82
2023/04/27 05:20:22;;;;;;;20.98;11.95;;;;;;;1.15;100.00;-18058.47;5000107;28;20166;-82
2023/04/27 05:22:48;;;;;;;17.63;11.45;;;;;;;1.19;100.00;-18059.44;4986118;28;20053;-82
2023/04/27 05:25:13;;;;;;;19.27;12.07;;;;;;;1.27;100.00;-18061.78;4986125;28;20126;-82
2023/04/27 05:27:39;;;;;;;20.40;11.43;;;;;;;1.35;100.00;-18063.88;4984177;28;20719;-82
2023/04/27 05:30:06;;;;;;;23.13;12.15;;;;;;;1.53;100.00;-18068.84;4985056;28;20042;-82
2023/04/27 05:32:32;;;;;;;18.67;11.77;;;;;;;1.57;100.00;-18069.97;4986133;28;20108;-81
2023/04/27 05:34:57;;;;;;;20.60;12.43;;;;;;;1.73;100.00;-18074.25;4987904;28;20050;-81
2023/04/27 05:37:23;;;;;;;21.02;11.68;;;;;;;1.74;100.00;-18074.38;4984745;28;21046;-81
2023/04/27 05:39:48;;;;;;;20.33;11.85;;;;;;;1.88;100.00;-18078.13;4982929;28;20399;-82
2023/04/27 05:42:13;;;;;;;22.88;12.10;;;;;;;2.00;100.00;-18081.44;4984586;28;20403;-81
2023/04/27 05:44:39;;;;;;;17.90;10.68;;;;;;;2.15;100.00;-18085.47;4985571;28;20521;-81
2023/04/27 05:47:04;;;;;;;19.33;11.82;;;;;;;2.23;100.00;-18087.81;4985278;28;20057;-81
2023/04/27 05:49:30;;;;;;;18.58;12.60;;;;;;;2.41;100.00;-18092.66;4982363;28;20046;-81
2023/04/27 05:51:57;;;;;;;19.88;12.45;;;;;;;2.53;100.00;-18095.84;4986990;28;20058;-81
2023/04/27 05:54:23;;;;;;;20.98;11.63;;;;;;;2.69;100.00;-18100.13;4985976;28;20046;-80
2023/04/27 05:56:49;;;;;;;19.67;11.73;;;;;;;2.89;100.00;-18105.50;5003863;28;20386;-81
2023/04/27 05:59:14;;;;;;;19.42;11.48;;;;;;;3.02;100.00;-18109.09;4984669;28;20532;-81
2023/04/27 06:01:39;;;;;;;21.00;11.75;;;;;;;3.08;100.00;-18110.78;4984677;28;20043;-81
2023/04/27 06:04:05;;;;;;;20.52;11.23;;;;;;;3.23;100.00;-18114.78;4985678;28;20062;-81
2023/04/27 06:06:32;;;;;;;17.42;10.77;;;;;;;3.33;100.00;-18117.53;4984371;28;20421;-80
2023/04/27 06:08:57;;;;;;;20.73;10.40;;;;;;;3.70;100.00;-18127.50;4982592;28;20521;-80
2023/04/27 06:11:22;;;;;;;18.95;10.90;;;;;;;3.77;100.00;-18129.28;4982362;28;20074;-80
2023/04/27 06:13:48;;;;;;;17.38;9.90;;;;;;;3.80;100.00;-18130.13;4983294;28;20510;-80
2023/04/27 06:16:13;;;;;;;17.95;10.10;;;;;;;3.85;100.00;-18131.50;4985462;28;20089;-80
2023/04/27 06:18:39;;;;;;;15.93;9.10;;;;;;;3.98;100.00;-18134.94;4986312;28;20042;-80
2023/04/27 06:21:05;;;;;;;14.73;8.70;;;;;;;4.25;100.00;-18142.28;4985763;28;20035;-80
2023/04/27 06:23:31;;;;;;;15.77;8.88;;;;;;;4.35;100.00;-18144.91;4986939;28;20424;-81
2023/04/27 06:25:57;;;;;;;14.52;7.97;;;;;;;4.54;100.00;-18150.13;4988938;28;20034;-81
2023/04/27 06:28:23;;;;;;;12.00;8.32;;;;;;;4.77;100.00;-18156.22;4989291;28;20053;-80
2023/04/27 06:30:48;;;;;;;10.55;7.00;;;;;;;4.94;100.00;-18161.03;4990779;28;20042;-81
2023/04/27 06:33:13;;;;;;;11.98;6.40;;;;;;;5.08;100.00;-18164.78;4989082;28;20046;-81
2023/04/27 06:35:39;;;;;;;11.75;6.45;;;;;;;5.26;100.00;-18169.47;4989874;28;20129;-81
2023/04/27 06:38:04;;;;;;;14.98;6.10;;;;;;;5.41;100.00;-18173.63;4988323;28;20042;-81
2023/04/27 06:40:29;;;;;;;12.75;5.78;;;;;;;5.61;100.00;-18179.13;4989513;28;20085;-81
2023/04/27 06:42:55;;;;;;;13.20;5.55;;;;;;;5.72;100.00;-18181.88;4989904;28;20050;-81
2023/04/27 06:45:20;;;;;;;10.52;5.43;;;;;;;5.84;100.00;-18185.19;4989772;28;20046;-81
2023/04/27 06:47:45;;;;;;;9.60;4.95;;;;;;;5.89;100.00;-18186.72;4988993;28;20057;-81
2023/04/27 06:50:11;;;;;;;8.60;4.80;;;;;;;6.05;100.00;-18191.00;4987708;28;20525;-81
2023/04/27 06:52:36;;;;;;;8.90;4.25;;;;;;;6.27;100.00;-18196.78;4989163;28;20097;-81
2023/04/27 06:55:01;;;;;;;12.05;3.90;;;;;;;6.35;100.00;-18198.84;4991751;28;20066;-81
2023/04/27 06:57:27;;;;;;;6.78;4.00;;;;;;;6.60;100.00;-18205.63;4987029;28;20043;-81
2023/04/27 06:59:52;;;;;;;8.25;3.38;;;;;;;6.62;100.00;-18206.31;4991018;28;20109;-81
2023/04/27 07:02:18;;;;;;;6.65;3.67;;;;;;;6.64;100.00;-18206.72;4988991;28;20069;-81
2023/04/27 07:04:43;;;;;;;7.95;3.55;;;;;;;6.82;100.00;-18211.69;4988816;28;20054;-81
2023/04/27 07:07:09;;;;;;;6.00;3.42;;;;;;;6.85;100.00;-18212.38;4986555;28;20054;-81
2023/04/27 07:09:34;;;;;;;6.82;3.30;;;;;;;6.85;100.00;-18212.38;4988691;28;21193;-81
2023/04/27 07:12:00;;;;;;;8.27;3.28;;;;;;;6.85;100.00;-18212.50;4989639;28;20058;-81
2023/04/27 07:14:25;;;;;;;6.88;3.40;;;;;;;6.92;100.00;-18214.44;4989043;28;20637;-80
2023/04/27 07:16:51;;;;;;;5.82;3.15;;;;;;;6.96;100.00;-18215.41;4989937;28;20056;-81
2023/04/27 07:19:16;;;;;;;7.05;3.35;;;;;;;7.14;100.00;-18220.22;4985807;28;20756;-81
2023/04/27 07:21:41;;;;;;;8.68;3.40;;;;;;;7.17;100.00;-18221.19;4987170;28;20042;-81
2023/04/27 07:24:07;;;;;;;5.47;2.92;;;;;;;7.31;100.00;-18224.91;4990596;28;20038;-81
2023/04/27 07:26:32;;;;;;;4.90;2.53;;;;;;;7.35;100.00;-18226.00;4987742;28;20457;-81
2023/04/27 07:28:58;;;;;;;7.00;2.78;;;;;;;7.39;100.00;-18227.13;4989015;28;20073;-81
2023/04/27 07:31:23;;;;;;;6.95;3.17;;;;;;;7.40;100.00;-18227.38;4987865;28;20042;-81
2023/04/27 07:33:48;;;;;;;6.53;2.65;;;;;;;7.47;100.00;-18229.31;4988444;28;20050;-81
2023/04/27 07:36:14;;;;;;;5.00;2.85;;;;;;;7.47;100.00;-18229.19;4988871;28;20432;-81
2023/04/27 07:38:39;;;;;;;6.85;2.50;;;;;;;7.63;100.00;-18233.59;4986439;28;20057;-81
2023/04/27 07:41:05;;;;;;;6.55;2.63;;;;;;;7.86;100.00;-18239.66;4991158;28;20465;-81
2023/04/27 07:43:31;;;;;;;7.30;2.47;;;;;;;7.80;100.00;-18238.00;4992569;28;20057;-81
2023/04/27 07:45:57;;;;;;;5.50;2.30;;;;;;;7.90;100.00;-18240.88;4994582;28;20061;-82
2023/04/27 07:48:22;;;;;;;5.40;2.10;;;;;;;7.96;100.00;-18242.25;5008563;28;20501;-81
2023/04/27 07:50:48;;;;;;;6.93;2.75;;;;;;;8.05;100.00;-18244.88;4991719;28;20038;-81
2023/04/27 07:53:13;;;;;;;6.25;2.60;;;;;;;8.06;100.00;-18245.03;4999769;28;20039;-82
2023/04/27 07:55:40;;;;;;;4.55;2.35;;;;;;;8.08;100.00;-18245.69;4993983;28;20401;-81
2023/04/27 07:58:05;;;;;;;5.20;2.60;;;;;;;8.11;100.00;-18246.38;4996634;28;20690;-81
2023/04/27 08:00:31;;;;;;;5.07;2.78;;;;;;;8.26;100.00;-18250.38;4991284;28;20046;-82
2023/04/27 08:02:56;;;;;;;4.88;2.65;;;;;;;8.50;100.00;-18256.88;4995189;28;20520;-81
2023/04/27 08:05:22;;;;;;;4.25;2.50;;;;;;;8.52;100.00;-18257.41;4991177;28;20042;-82
2023/04/27 08:07:47;;;;;;;6.50;2.40;;;;;;;8.60;100.00;-18259.63;4994449;28;20637;-82
2023/04/27 08:10:14;;;;;;;5.88;2.25;;;;;;;8.81;100.00;-18265.41;4991522;28;20065;-82
2023/04/27 08:12:39;;;;;;;6.22;2.13;;;;;;;8.93;100.00;-18268.56;4994234;28;20065;-82
2023/04/27 08:15:06;;;;;;;4.93;2.30;;;;;;;9.10;100.00;-18273.09;4994327;28;20053;-81
2023/04/27 08:17:31;;;;;;;3.28;1.90;;;;;;;9.18;100.00;-18275.31;4994090;28;20109;-81
2023/04/27 08:19:57;;;;;;;5.82;2.40;;;;;;;9.22;100.00;-18276.41;4993259;28;20493;-82
2023/04/27 08:22:22;;;;;;;6.90;2.63;;;;;;;9.24;100.00;-18276.81;4992283;28;21005;-82
2023/04/27 08:24:47;;;;;;;5.80;2.53;;;;;;;9.19;100.00;-18275.56;4994311;28;20066;-81
2023/04/27 08:27:14;;;;;;;6.15;2.28;;;;;;;9.23;100.00;-18276.66;4994386;28;20034;-82
2023/04/27 08:29:44;;;;;;;4.60;2.20;;;;;;;9.32;100.00;-18278.88;4993643;28;20053;-82
2023/04/27 08:32:10;;;;;;;4.78;2.20;;;;;;;9.49;100.00;-18283.69;4994086;28;20157;-82
2023/04/27 08:34:35;;;;;;;5.60;2.40;;;;;;;9.63;100.00;-18287.25;4994660;28;20116;-82
2023/04/27 08:37:03;;;;;;;5.32;2.00;;;;;;;9.47;100.00;-18283.13;4995624;28;20046;-82
2023/04/27 08:39:28;;;;;;;5.07;2.10;;;;;;;9.57;100.00;-18285.75;4993400;28;20058;-83
2023/04/27 08:41:54;;;;;;;4.78;2.03;;;;;;;9.58;90.26;-18286.03;4996070;28;20132;-82
2023/04/27 08:44:19;;;;;;;6.05;2.10;;;;;;;9.64;94.67;-18287.69;4995087;28;20046;-82
2023/04/27 08:46:45;;;;;;;6.68;2.00;;;;;;;9.55;95.19;-18285.06;4993126;28;20042;-82
2023/04/27 08:49:10;;;;;;;4.15;2.20;;;;;;;9.68;100.00;-18288.78;4993995;28;20453;-82
2023/04/27 08:51:36;;;;;;;3.95;2.00;;;;;;;9.83;97.05;-18292.75;4998704;28;20046;-82
2023/04/27 08:54:01;;;;;;;6.07;2.20;;;;;;;9.89;95.53;-18294.28;4994550;28;20046;-82
2023/04/27 08:56:28;;;;;;;5.32;1.88;;;;;;;10.01;94.38;-18297.44;4992624;28;20045;-82
2023/04/27 08:58:55;;;;;;;4.28;2.13;;;;;;;9.97;86.23;-18296.47;4994346;28;20046;-82
2023/04/27 09:01:22;;;;;;;5.18;2.30;;;;;;;10.07;92.45;-18299.22;4992003;28;20042;-82
2023/04/27 09:03:48;;;;;;;4.65;2.20;;;;;;;10.21;95.30;-18302.94;4995969;28;20100;-82
2023/04/27 09:06:14;;;;;;;4.70;1.98;;;;;;;10.15;88.06;-18301.41;4992994;28;20037;-82
2023/04/27 09:08:40;;;;;;;4.80;2.40;;;;;;;9.96;86.15;-18296.19;4995976;28;20449;-82
2023/04/27 09:11:05;;;;;;;5.53;2.08;;;;;;;10.20;95.62;-18302.53;4992589;28;20038;-82
2023/04/27 09:13:35;;;;;;;3.03;1.98;;;;;;;10.43;96.34;-18308.72;4993295;28;20113;-82
2023/04/27 09:16:01;;;;;;;2.70;1.80;;;;;;;10.43;93.25;-18308.84;4994090;28;20034;-82
2023/04/27 09:18:26;;;;;;;4.78;2.00;;;;;;;10.27;83.85;-18304.44;4991184;28;20077;-82
2023/04/27 09:20:52;;;;;;;4.18;1.80;;;;;;;10.14;73.86;-18301.16;4993230;28;20051;-82
2023/04/27 09:23:31;;;;;;;4.60;2.28;;;;;;;9.94;79.64;-18295.66;4993026;28;20625;-82
2023/04/27 09:25:58;;;;;;;5.18;2.22;;;;;;;10.33;95.21;-18306.09;4995240;28;20046;-82
2023/04/27 09:28:26;;;;;;;4.72;2.17;;;;;;;10.60;99.02;-18313.53;4993869;28;20101;-82
2023/04/27 09:30:57;;;;;;;3.97;2.47;;;;;;;10.74;92.95;-18317.09;4994389;28;20042;-82
2023/04/27 09:33:33;;;;;;;4.32;2.65;;;;;;;10.88;89.30;-18320.94;4995584;28;20053;-82
2023/04/27 09:36:02;;;;;;;5.68;2.60;;;;;;;11.03;93.72;-18325.06;4995419;28;20053;-82
2023/04/27 09:38:29;;;;;;;4.40;2.35;;;;;;;11.20;85.94;-18329.59;4994241;28;20042;-83
2023/04/27 09:40:55;;;;;;;6.32;2.65;;;;;;;11.06;87.91;-18325.88;4996681;28;20101;-83
2023/04/27 09:43:22;;;;;;;5.57;2.45;;;;;;;11.20;86.28;-18329.47;4995066;28;20106;-82
2023/04/27 09:45:49;;;;;;;4.15;2.30;;;;;;;11.21;85.58;-18329.72;4997844;28;20038;-82
2023/04/27 09:48:14;;;;;;;3.65;2.20;;;;;;;11.16;72.50;-18328.34;4992300;28;20141;-82
2023/04/27 09:50:42;;;;;;;3.75;2.30;;;;;;;11.01;76.23;-18324.50;4995352;28;20098;-82
2023/04/27 09:53:10;;;;;;;3.70;2.40;;;;;;;10.94;71.89;-18322.59;5000260;28;20092;-82
2023/04/27 09:55:54;;;;;;;4.20;2.72;;;;;;;11.11;77.16;-18326.97;4997091;28;20046;-83
2023/04/27 09:58:56;;;;;;;4.38;2.47;;;;;;;11.35;77.51;-18333.44;4994435;28;20046;-81
2023/04/27 10:01:24;;;;;;;5.97;3.03;;;;;;;11.39;78.76;-18334.53;4985959;28;20069;-81
2023/04/27 10:04:41;;;;;;;4.75;2.63;;;;;;;11.67;82.31;-18342.09;4998183;28;20065;-82
2023/04/27 10:07:11;;;;;;;5.57;2.70;;;;;;;11.92;74.51;-18348.81;4950226;28;20624;-81
2023/04/27 10:09:47;;;;;;;5.50;3.58;;;;;;;11.56;69.44;-18339.19;4997531;28;20042;-82
2023/04/27 10:12:26;;;;;;;4.15;2.78;;;;;;;11.57;66.94;-18339.34;4998110;28;20038;-81
2023/04/27 10:14:56;;;;;;;6.47;3.00;;;;;;;11.56;82.97;-18339.06;4996698;28;20133;-81
2023/04/27 10:17:29;;;;;;;4.82;2.60;;;;;;;11.94;80.06;-18349.50;4999294;28;20117;-81
2023/04/27 10:19:59;;;;;;;8.52;3.15;;;;;;;12.04;75.72;-18352.09;4995640;28;20603;-81
2023/04/27 10:22:43;;;;;;;4.95;2.97;;;;;;;12.06;75.02;-18352.53;4992789;28;20061;-81
2023/04/27 10:25:19;;;;;;;7.60;3.55;;;;;;;12.09;70.21;-18353.34;4991420;28;20068;-81
2023/04/27 10:27:51;;;;;;;7.45;4.03;;;;;;;11.98;76.72;-18350.31;5013673;23;20173;-85
2023/04/27 10:30:17;;;;;;;7.78;4.13;;;;;;;12.12;69.95;-18354.31;5027900;28;20045;-83
2023/04/27 10:32:54;;;;;;;6.53;3.78;;;;;;;12.15;76.12;-18355.00;5004876;28;20069;-84
2023/04/27 10:35:21;;;;;;;4.95;3.60;;;;;;;12.37;73.48;-18361.03;5002301;28;20508;-84
2023/04/27 10:37:51;;;;;;;7.05;3.58;;;;;;;12.29;70.01;-18358.69;5004307;28;20413;-84
2023/04/27 10:40:17;;;;;;;7.80;4.28;;;;;;;12.21;63.94;-18356.50;5029929;23;20050;-81
2023/04/27 10:42:48;;;;;;;6.45;3.63;;;;;;;12.04;63.89;-18352.09;4995771;28;20049;-82
2023/04/27 10:45:13;;;;;;;5.88;3.63;;;;;;;11.98;69.77;-18350.31;4987953;28;20431;-81
2023/04/27 10:47:44;;;;;;;6.82;4.10;;;;;;;12.12;75.46;-18354.16;4991530;28;20050;-82
2023/04/27 10:50:12;;;;;;;6.68;3.70;;;;;;;12.45;75.67;-18362.94;4990895;28;20528;-82
2023/04/27 10:52:45;;;;;;;5.38;3.75;;;;;;;12.61;64.89;-18367.34;4994691;28;20046;-82
2023/04/27 10:55:14;;;;;;;6.35;4.50;;;;;;;12.58;59.14;-18366.66;4992399;28;20044;-83
2023/04/27 10:57:50;;;;;;;5.18;3.80;;;;;;;12.83;69.68;-18373.38;5002757;28;20049;-82
2023/04/27 11:00:34;;;;;;;6.85;4.25;;;;;;;12.72;66.84;-18370.22;5000868;28;20045;-83
2023/04/27 11:03:20;;;;;;;6.18;4.10;;;;;;;12.36;56.29;-18360.63;4997194;28;20062;-82
2023/04/27 11:05:47;;;;;;;8.73;3.90;;;;;;;12.12;56.80;-18354.16;4994064;28;20053;-82
2023/04/27 11:08:15;;;;;;;7.28;4.10;;;;;;;12.26;60.49;-18357.88;5001823;28;20080;-82
2023/04/27 11:10:48;;;;;;;6.75;3.80;;;;;;;12.33;62.10;-18359.78;5003082;28;20046;-82
2023/04/27 11:13:17;;;;;;;7.13;3.50;;;;;;;12.68;65.58;-18369.25;4997350;28;20409;-82
2023/04/27 11:15:56;;;;;;;5.38;3.17;;;;;;;12.93;65.32;-18375.97;5006227;28;20486;-82
2023/04/27 11:18:28;;;;;;;4.97;3.63;;;;;;;12.97;63.17;-18376.94;5006034;28;20446;-81